Fort Lewis, WA

9:35 PM PDT on September 30, 2014 (GMT -0700)
Tacoma Narrows | Change Station
CLOSE
Current Station
Airport
Location: Tacoma Narrows,
Elevation: 292 ft
Nearby Weather Stations

Elev 292 ft 47.27 °N, 122.58 °W | Updated 42 minutes ago

Partly Cloudy
Partly Cloudy
57 °F
Feels Like 57 °F
N
4
Wind Variable Wind from ESE

Today
High -- | Low -- °F
--% Chance of Precip.
Yesterday
High -- | Low -- °F
Precip. -- in
7:07 AM 6:51 PM
Waxing Crescent, 43% visible
Pressure 30.14 in
Visibility 10.0 miles
Clouds Few 4600 ft
Few 8000 ft
Dew Point 50 °F
Humidity 77%
Rainfall 0.00 in
Snow Depth 0 in , 1 in , 0 in
UV 0 out of 12
Pollen .20 out of 12
PM2.5 Good
Flu Activity Not available.
METAR KTIW 010353Z AUTO 12003KT 10SM FEW046 FEW080 14/10 A3014 RMK AO2 SLP207 T01390100

More Conditions Fewer Conditions

Pressure 30.14 in
Visibility 10.0 miles
Clouds Few 4600 ft
Few 8000 ft
Dew Point 50 °F
Humidity 77%
Rainfall 0.00 in
Snow Depth 0 in , 1 in , 0 in
UV 0 out of 12
Pollen .20 out of 12
PM2.5 Good
Flu Activity Not available.
METAR KTIW 010353Z AUTO 12003KT 10SM FEW046 FEW080 14/10 A3014 RMK AO2 SLP207 T01390100

More Conditions Fewer Conditions

10-Day Weather Forecast

Almanac

Astronomy

Sep. 30, 2014 Rise Set
Actual Time 7:07 AM PDT 6:51 PM PDT
Civil Twilight 6:37 AM PDT 7:22 PM PDT
Nautical Twilight 6:02 AM PDT 7:57 PM PDT
Astronomical Twilight 5:25 AM PDT 8:33 PM PDT
Moon 1:38 PM PDT (9/30) 11:09 PM PDT (9/30)
Length of Visible Light 12h 44m
Length of Day
11h 43m
Tomorrow will be 3m 20s shorter.
Waxing Crescent, 43% of the Moon is Illuminated
Oct 1
Waxing Crescent
Oct 1
First Quarter
Oct 8
Full
Oct 15
Last Quarter
Oct 23
New

Yesterday's Extremes

State Highs State Lows

Community

WunderPhotos

Upload Photos

1,757,845 photos uploaded!

Nearby

Air Quality

  Air Quality AQ Index Pollutant
Yesterday Good
PM2.5
Current Good
PM2.5
Tuesday Good
PM2.5
Wednesday Good
PM2.5
Thursday Good
PM2.5
Friday Good
PM2.5
Saturday Good
PM2.5

Snow Depth

Station Depth Elevation
Stevens Pass 0 in 4070 ft
Pigtail Peak 0 in 5900 ft
Moses Mountain 1 in 5300 ft
Mount Gardner 0 in 3000 ft
Harts Pass 0 in 6500 ft

Earthquake Activity

City Distance Mag. Time & Date
No recent earthquake activity has been reported nearby.
Minimum magnitude displayed is 2.5.

Coastal Water Temperatures

Place Temperature
Port Townsend, WA 52.0 °F
Seattle, WA 55.0 °F
Friday Harbor, WA 51.1 °F
Tacoma, WA 55.0 °F

Nearby Weather Stations